Time;durP1;ratioP1;P1;durP2;ratioP2;P2;SDS_P1;SDS_P2;PMS_P1;PMS_P2;Temp;Humidity;BMP_temperature;BMP_pressure;BME280_temperature;BME280_humidity;BME280_pressure;Samples;Min_cycle;Max_cycle;Signal;HPM_P1;HPM_P2
2021/05/04 00:00:12;;;;;;;6.45;3.55;;;7.80;67.00;;;;;;1728344;83;21167;-83
2021/05/04 00:02:42;;;;;;;5.80;3.45;;;7.80;67.60;;;;;;1728439;83;21124;-83
2021/05/04 00:05:11;;;;;;;4.95;3.05;;;7.70;67.60;;;;;;1728365;83;21193;-82
2021/05/04 00:07:38;;;;;;;6.53;3.70;;;7.70;67.70;;;;;;1728469;83;21598;-82
2021/05/04 00:10:07;;;;;;;5.50;3.33;;;7.70;66.80;;;;;;1728550;83;21270;-83
2021/05/04 00:12:35;;;;;;;6.90;3.20;;;7.70;67.70;;;;;;1728489;83;21290;-82
2021/05/04 00:15:07;;;;;;;5.83;3.33;;;7.80;67.10;;;;;;1743272;81;21175;-83
2021/05/04 00:17:35;;;;;;;5.50;3.20;;;7.80;66.60;;;;;;1756712;82;21153;-83
2021/05/04 00:20:05;;;;;;;6.80;2.80;;;7.80;66.70;;;;;;1756709;82;21160;-82
2021/05/04 00:22:33;;;;;;;5.92;3.25;;;7.70;66.80;;;;;;1756525;81;21129;-82
2021/05/04 00:25:01;;;;;;;6.50;3.02;;;7.80;67.10;;;;;;1756876;82;21148;-81
2021/05/04 00:27:29;;;;;;;4.90;3.15;;;7.70;66.90;;;;;;1756700;82;21183;-82
2021/05/04 00:29:57;;;;;;;8.85;3.10;;;7.80;67.60;;;;;;1756591;82;21148;-81
2021/05/04 00:32:24;;;;;;;8.23;2.87;;;7.70;66.90;;;;;;1756599;81;21180;-81
2021/05/04 00:34:52;;;;;;;5.28;3.33;;;7.70;67.10;;;;;;1756541;81;21152;-82
2021/05/04 00:37:20;;;;;;;8.23;3.10;;;7.70;67.70;;;;;;1756938;82;21164;-81
2021/05/04 00:39:47;;;;;;;6.17;2.87;;;7.60;66.90;;;;;;1756928;81;21145;-80
2021/05/04 00:42:15;;;;;;;6.03;3.30;;;7.60;66.40;;;;;;1756610;81;21587;-81
2021/05/04 00:44:43;;;;;;;7.20;2.65;;;7.60;66.10;;;;;;1756574;81;21610;-81
2021/05/04 00:47:10;;;;;;;5.05;2.90;;;7.60;65.50;;;;;;1756566;81;21168;-80
2021/05/04 00:49:39;;;;;;;4.08;2.70;;;7.60;67.50;;;;;;1756551;81;21163;-81
2021/05/04 00:52:06;;;;;;;5.20;2.60;;;7.70;67.10;;;;;;1756558;80;21217;-81
2021/05/04 00:54:34;;;;;;;5.78;2.90;;;7.70;65.10;;;;;;1756780;81;21152;-81
2021/05/04 00:57:03;;;;;;;6.15;2.80;;;7.70;64.80;;;;;;1756559;81;21591;-82
2021/05/04 00:59:31;;;;;;;6.30;2.80;;;7.80;64.40;;;;;;1756549;80;21598;-84
2021/05/04 01:01:59;;;;;;;7.17;2.70;;;7.70;64.40;;;;;;1756688;82;21188;-83
2021/05/04 01:04:28;;;;;;;8.28;2.77;;;7.70;65.40;;;;;;1756764;81;21156;-84
2021/05/04 01:06:55;;;;;;;7.15;2.62;;;7.70;65.50;;;;;;1756577;80;21597;-83
2021/05/04 01:09:23;;;;;;;6.62;2.75;;;7.80;64.20;;;;;;1756482;81;21180;-83
2021/05/04 01:11:51;;;;;;;5.95;2.70;;;7.80;63.90;;;;;;1756713;80;21172;-84
2021/05/04 01:14:20;;;;;;;4.97;2.37;;;7.70;63.40;;;;;;1756420;80;21200;-83
2021/05/04 01:16:49;;;;;;;4.10;2.40;;;7.70;64.20;;;;;;1756503;82;21140;-84
2021/05/04 01:19:17;;;;;;;4.92;2.62;;;7.70;63.90;;;;;;1756777;81;21164;-84
2021/05/04 01:21:45;;;;;;;5.70;2.60;;;7.70;63.60;;;;;;1756725;82;21594;-84
2021/05/04 01:24:15;;;;;;;5.25;2.70;;;7.70;66.20;;;;;;1735911;82;21176;-82
2021/05/04 01:26:46;;;;;;;6.33;2.72;;;7.70;64.60;;;;;;1756682;82;21574;-82
2021/05/04 01:29:14;;;;;;;4.92;2.40;;;7.80;63.50;;;;;;1756636;81;21138;-81
2021/05/04 01:31:43;;;;;;;4.70;2.47;;;7.80;63.70;;;;;;1756606;82;21192;-82
2021/05/04 01:34:13;;;;;;;4.10;2.37;;;7.70;64.20;;;;;;1756648;81;21152;-82
2021/05/04 01:36:41;;;;;;;7.12;2.62;;;7.70;64.40;;;;;;1756772;81;21141;-81
2021/05/04 01:39:11;;;;;;;4.22;2.47;;;7.80;63.30;;;;;;1756549;82;21144;-83
2021/05/04 01:41:39;;;;;;;7.90;2.60;;;7.80;63.00;;;;;;1756692;82;21160;-83
2021/05/04 01:44:09;;;;;;;4.10;2.12;;;7.80;63.70;;;;;;1756647;81;21176;-82
2021/05/04 01:46:37;;;;;;;4.35;2.20;;;7.70;62.30;;;;;;1756660;80;21156;-82
2021/05/04 01:49:07;;;;;;;3.52;2.22;;;7.80;62.70;;;;;;1756554;82;21607;-82
2021/05/04 01:51:38;;;;;;;3.95;2.33;;;7.80;62.20;;;;;;1757099;80;21168;-83
2021/05/04 01:54:05;;;;;;;4.72;2.75;;;7.80;61.70;;;;;;1756456;81;21157;-82
2021/05/04 01:56:33;;;;;;;5.50;2.45;;;7.70;62.30;;;;;;1756435;81;21176;-82
2021/05/04 01:59:03;;;;;;;4.65;2.15;;;7.70;62.40;;;;;;1756439;80;21152;-82
2021/05/04 02:01:30;;;;;;;5.40;2.20;;;7.50;61.90;;;;;;1756624;81;21129;-82
2021/05/04 02:03:58;;;;;;;4.15;2.42;;;7.60;62.70;;;;;;1756723;82;21144;-82
2021/05/04 02:06:26;;;;;;;6.25;2.80;;;7.60;62.20;;;;;;1756455;81;21164;-82
2021/05/04 02:08:53;;;;;;;5.87;2.30;;;7.60;62.00;;;;;;1756774;81;21129;-82
2021/05/04 02:11:21;;;;;;;5.30;2.50;;;7.50;61.90;;;;;;1756887;81;21559;-82
2021/05/04 02:13:49;;;;;;;4.60;2.30;;;7.50;62.70;;;;;;1756712;81;21118;-82
2021/05/04 02:16:16;;;;;;;3.55;2.10;;;7.50;61.80;;;;;;1756661;81;21168;-82
2021/05/04 02:18:44;;;;;;;3.60;2.02;;;7.50;62.30;;;;;;1756824;80;21121;-82
2021/05/04 02:21:15;;;;;;;5.87;2.08;;;7.50;62.20;;;;;;1756916;81;21611;-82
2021/05/04 02:23:42;;;;;;;4.30;2.35;;;7.60;61.80;;;;;;1757010;81;21165;-82
2021/05/04 02:26:12;;;;;;;4.33;2.33;;;7.50;61.10;;;;;;1756881;82;21606;-82
2021/05/04 02:28:39;;;;;;;4.30;2.30;;;7.50;61.60;;;;;;1756718;82;21164;-82
2021/05/04 02:31:08;;;;;;;5.85;2.27;;;7.40;62.30;;;;;;1756786;81;21124;-82
2021/05/04 02:33:37;;;;;;;3.83;2.42;;;7.40;62.50;;;;;;1756704;82;21152;-82
2021/05/04 02:36:06;;;;;;;6.70;2.60;;;7.30;62.80;;;;;;1756799;80;21164;-82
2021/05/04 02:38:34;;;;;;;3.80;2.40;;;7.20;62.90;;;;;;1757197;82;21571;-82
2021/05/04 02:41:04;;;;;;;7.00;2.37;;;7.20;63.30;;;;;;1756969;81;21161;-82
2021/05/04 02:43:32;;;;;;;4.25;2.30;;;7.20;63.50;;;;;;1756978;80;21615;-81
2021/05/04 02:46:01;;;;;;;5.10;2.87;;;7.20;63.70;;;;;;1756686;80;21208;-81
2021/05/04 02:48:29;;;;;;;4.05;2.72;;;7.20;63.50;;;;;;1756876;81;21184;-81
2021/05/04 02:50:57;;;;;;;4.67;2.45;;;7.20;63.40;;;;;;1756910;82;21125;-81
2021/05/04 02:53:25;;;;;;;5.45;2.33;;;7.20;63.80;;;;;;1757031;81;21607;-81
2021/05/04 02:55:54;;;;;;;3.92;2.35;;;7.20;64.00;;;;;;1756410;81;21188;-82
2021/05/04 02:58:22;;;;;;;3.65;2.20;;;7.20;64.40;;;;;;1756871;80;21145;-81
2021/05/04 03:00:49;;;;;;;6.37;2.95;;;7.20;64.80;;;;;;1756857;82;21618;-81
2021/05/04 03:03:17;;;;;;;3.67;2.27;;;7.20;63.60;;;;;;1756776;82;21152;-81
2021/05/04 03:05:45;;;;;;;4.78;2.37;;;7.20;62.70;;;;;;1756962;81;21156;-82
2021/05/04 03:08:13;;;;;;;5.15;2.52;;;7.20;62.80;;;;;;1756759;82;21148;-81
2021/05/04 03:10:41;;;;;;;4.25;2.50;;;7.20;63.00;;;;;;1756856;82;21180;-81
2021/05/04 03:13:08;;;;;;;3.87;2.45;;;7.20;63.50;;;;;;1756729;82;21173;-81
2021/05/04 03:15:36;;;;;;;3.58;2.33;;;7.20;63.20;;;;;;1756942;81;21183;-81
2021/05/04 03:18:04;;;;;;;4.45;2.60;;;7.10;63.30;;;;;;1756761;80;21157;-81
2021/05/04 03:20:32;;;;;;;6.08;2.72;;;7.10;63.80;;;;;;1756921;81;21181;-82
2021/05/04 03:23:02;;;;;;;4.37;2.60;;;7.10;63.90;;;;;;1756739;82;21576;-82
2021/05/04 03:25:29;;;;;;;4.58;2.80;;;7.00;64.10;;;;;;1756837;81;21172;-82
2021/05/04 03:27:59;;;;;;;5.12;2.50;;;7.00;64.30;;;;;;1756569;82;21161;-82
2021/05/04 03:30:27;;;;;;;5.30;2.75;;;7.00;64.70;;;;;;1756817;81;21157;-83
2021/05/04 03:32:54;;;;;;;4.70;2.52;;;7.00;64.20;;;;;;1756545;80;21251;-82
2021/05/04 03:35:22;;;;;;;4.50;2.37;;;7.00;64.00;;;;;;1756547;82;21164;-83
2021/05/04 03:37:50;;;;;;;6.67;3.05;;;7.00;64.50;;;;;;1756830;82;21177;-83
2021/05/04 03:40:18;;;;;;;5.75;3.05;;;7.00;64.10;;;;;;1756676;81;21121;-83
2021/05/04 03:42:46;;;;;;;5.08;2.50;;;7.00;64.70;;;;;;1756640;81;21634;-82
2021/05/04 03:45:14;;;;;;;5.55;2.60;;;6.90;63.90;;;;;;1756645;81;21160;-82
2021/05/04 03:47:44;;;;;;;6.37;2.60;;;7.00;64.00;;;;;;1756785;82;21125;-82
2021/05/04 03:50:19;;;;;;;5.83;2.70;;;7.00;63.90;;;;;;1756571;81;21160;-82
2021/05/04 03:52:47;;;;;;;5.12;2.50;;;7.00;64.00;;;;;;1756633;82;21623;-83
2021/05/04 03:55:15;;;;;;;7.15;2.35;;;7.10;64.50;;;;;;1756821;81;21579;-83
2021/05/04 03:57:43;;;;;;;6.45;2.45;;;7.10;64.20;;;;;;1756791;82;21611;-82
2021/05/04 04:00:13;;;;;;;4.90;2.80;;;7.10;63.70;;;;;;1756553;81;21639;-83
2021/05/04 04:02:41;;;;;;;5.85;2.40;;;7.20;63.90;;;;;;1756496;82;21169;-83
2021/05/04 04:05:11;;;;;;;4.47;2.40;;;7.20;63.50;;;;;;1756643;81;21172;-83
2021/05/04 04:07:39;;;;;;;5.37;2.50;;;7.20;63.30;;;;;;1756733;82;21160;-87
2021/05/04 04:10:11;;;;;;;3.95;2.55;;;7.10;63.30;;;;;;1756706;81;21161;-83
2021/05/04 04:12:40;;;;;;;4.35;2.45;;;7.10;63.50;;;;;;1757035;81;21153;-85
2021/05/04 04:15:10;;;;;;;5.25;2.17;;;7.10;63.40;;;;;;1754959;81;21144;-85
2021/05/04 04:17:38;;;;;;;4.90;2.50;;;7.20;63.70;;;;;;1728505;83;21140;-85
2021/05/04 04:20:08;;;;;;;4.55;2.65;;;7.20;63.30;;;;;;1728333;83;21151;-85
2021/05/04 04:22:36;;;;;;;4.70;2.40;;;7.20;64.70;;;;;;1728556;83;21330;-85
2021/05/04 04:25:07;;;;;;;7.60;2.75;;;7.30;63.20;;;;;;1728520;83;21148;-85
2021/05/04 04:27:35;;;;;;;7.47;2.90;;;7.30;63.40;;;;;;1728620;83;21104;-84
2021/05/04 04:30:04;;;;;;;6.55;3.12;;;7.30;63.40;;;;;;1728354;83;21167;-85
2021/05/04 04:32:31;;;;;;;5.25;3.00;;;7.30;63.20;;;;;;1728269;83;21121;-84
2021/05/04 04:34:59;;;;;;;5.47;2.90;;;7.30;62.40;;;;;;1728346;83;21586;-83
2021/05/04 04:37:28;;;;;;;6.00;3.20;;;7.20;63.90;;;;;;1728430;83;21582;-84
2021/05/04 04:39:56;;;;;;;5.70;3.00;;;7.30;63.20;;;;;;1728559;83;21167;-84
2021/05/04 04:42:24;;;;;;;8.95;3.20;;;7.30;63.10;;;;;;1728511;83;21282;-83
2021/05/04 04:44:51;;;;;;;5.08;2.70;;;7.40;63.70;;;;;;1728696;83;21148;-84
2021/05/04 04:47:19;;;;;;;5.37;2.77;;;7.40;62.60;;;;;;1728516;83;21302;-84
2021/05/04 04:49:48;;;;;;;5.15;2.75;;;7.50;62.50;;;;;;1728549;83;21160;-84
2021/05/04 04:52:16;;;;;;;6.50;3.02;;;7.60;62.50;;;;;;1728578;83;21575;-83
2021/05/04 04:54:44;;;;;;;4.70;2.72;;;7.60;62.20;;;;;;1728317;83;21147;-83
2021/05/04 04:57:11;;;;;;;5.45;3.10;;;7.70;62.90;;;;;;1728449;83;21289;-84
2021/05/04 04:59:40;;;;;;;5.70;2.80;;;7.60;61.50;;;;;;1728311;83;21167;-83
2021/05/04 05:02:08;;;;;;;4.95;2.70;;;7.70;61.60;;;;;;1728502;83;21294;-83
2021/05/04 05:04:35;;;;;;;4.25;2.72;;;7.80;61.30;;;;;;1728332;83;21586;-83
2021/05/04 05:07:06;;;;;;;6.12;2.62;;;7.90;61.30;;;;;;1728488;83;21188;-83
2021/05/04 05:09:35;;;;;;;6.03;2.85;;;8.00;61.10;;;;;;1728393;83;21178;-83
2021/05/04 05:12:05;;;;;;;5.83;2.87;;;8.00;61.30;;;;;;1728555;83;21318;-84
2021/05/04 05:14:35;;;;;;;6.72;2.75;;;8.10;60.90;;;;;;1728503;83;21101;-83
2021/05/04 05:17:04;;;;;;;5.22;2.85;;;8.20;62.50;;;;;;1728182;81;21168;-82
2021/05/04 05:19:32;;;;;;;5.83;3.08;;;8.30;61.10;;;;;;1728137;83;21189;-82
2021/05/04 05:22:03;;;;;;;6.37;2.75;;;8.40;62.00;;;;;;1728157;82;21180;-82
2021/05/04 05:24:31;;;;;;;4.10;2.72;;;8.50;61.40;;;;;;1728049;82;21121;-82
2021/05/04 05:27:00;;;;;;;6.20;3.02;;;8.50;60.90;;;;;;1728248;82;21126;-83
2021/05/04 05:29:31;;;;;;;4.35;2.62;;;8.60;61.00;;;;;;1728033;82;21161;-82
2021/05/04 05:31:58;;;;;;;4.90;3.00;;;8.60;59.80;;;;;;1728017;82;21168;-82
2021/05/04 05:34:26;;;;;;;3.75;2.65;;;8.70;60.80;;;;;;1728190;82;21133;-82
2021/05/04 05:36:55;;;;;;;6.30;2.50;;;8.70;59.80;;;;;;1728052;82;21568;-83
2021/05/04 05:39:23;;;;;;;5.70;2.67;;;8.90;60.00;;;;;;1728138;82;21117;-83
2021/05/04 05:41:52;;;;;;;6.20;2.80;;;8.90;59.50;;;;;;1728059;82;21161;-83
2021/05/04 05:44:20;;;;;;;4.70;2.98;;;9.10;59.10;;;;;;1728010;82;21184;-83
2021/05/04 05:46:51;;;;;;;7.53;3.80;;;9.10;59.00;;;;;;1728031;82;21121;-83
2021/05/04 05:49:18;;;;;;;5.65;3.12;;;9.10;58.30;;;;;;1728219;83;21160;-83
2021/05/04 05:51:46;;;;;;;4.70;2.60;;;9.20;57.20;;;;;;1728005;82;21130;-82
2021/05/04 05:54:13;;;;;;;6.62;2.75;;;9.20;56.90;;;;;;1728119;82;21161;-82
2021/05/04 05:56:41;;;;;;;5.87;3.33;;;9.30;58.50;;;;;;1728207;82;21567;-82
2021/05/04 05:59:08;;;;;;;7.40;3.25;;;9.40;59.30;;;;;;1728092;83;21619;-82
2021/05/04 06:01:36;;;;;;;5.67;2.72;;;9.50;59.10;;;;;;1728296;82;21160;-82
2021/05/04 06:04:04;;;;;;;8.10;3.75;;;9.60;57.10;;;;;;1728023;82;21153;-82
2021/05/04 06:06:32;;;;;;;7.62;3.40;;;9.70;57.80;;;;;;1728011;82;21156;-82
2021/05/04 06:09:00;;;;;;;4.40;2.70;;;9.80;56.60;;;;;;1728208;82;21181;-82
2021/05/04 06:11:28;;;;;;;5.83;3.33;;;9.90;56.00;;;;;;1728016;82;21169;-83
2021/05/04 06:13:55;;;;;;;9.43;3.55;;;10.00;56.20;;;;;;1728082;82;21599;-82
2021/05/04 06:16:23;;;;;;;8.03;3.12;;;10.00;55.70;;;;;;1737139;81;21180;-82
2021/05/04 06:18:51;;;;;;;8.03;3.42;;;10.10;54.30;;;;;;1756686;82;21615;-82
2021/05/04 06:21:19;;;;;;;6.58;3.20;;;10.10;54.00;;;;;;1756427;81;21113;-81
2021/05/04 06:23:47;;;;;;;7.62;3.75;;;10.30;55.30;;;;;;1756517;82;21196;-82
2021/05/04 06:26:16;;;;;;;6.22;3.27;;;10.30;53.90;;;;;;1756421;80;21149;-81
2021/05/04 06:28:49;;;;;;;6.80;3.00;;;10.40;54.90;;;;;;1756459;81;21161;-82
2021/05/04 06:31:20;;;;;;;5.65;3.30;;;10.50;54.50;;;;;;1756544;82;21214;-82
2021/05/04 06:33:48;;;;;;;7.50;3.50;;;10.70;54.60;;;;;;1756649;82;21133;-82
2021/05/04 06:36:17;;;;;;;8.78;3.52;;;10.70;53.60;;;;;;1756684;81;21152;-82
2021/05/04 06:38:44;;;;;;;7.05;3.02;;;10.80;52.00;;;;;;1756481;81;21148;-82
2021/05/04 06:41:12;;;;;;;6.35;2.90;;;10.90;53.30;;;;;;1756720;81;21169;-83
2021/05/04 06:43:40;;;;;;;7.83;3.50;;;11.00;53.40;;;;;;1756486;82;21170;-82
2021/05/04 06:46:08;;;;;;;9.93;3.35;;;11.00;52.30;;;;;;1756624;81;21610;-83
2021/05/04 06:48:35;;;;;;;9.28;3.27;;;11.10;52.00;;;;;;1756387;81;21148;-81
2021/05/04 06:51:04;;;;;;;7.40;3.45;;;11.20;52.40;;;;;;1756971;81;21605;-82
2021/05/04 06:53:31;;;;;;;7.58;3.90;;;11.30;52.40;;;;;;1756491;80;21137;-82
2021/05/04 06:55:59;;;;;;;5.85;3.30;;;11.40;50.90;;;;;;1756559;81;21148;-82
2021/05/04 06:58:27;;;;;;;7.55;3.25;;;11.50;52.60;;;;;;1756663;81;21161;-82
2021/05/04 07:00:54;;;;;;;5.90;2.87;;;11.60;52.50;;;;;;1756639;82;21148;-82
2021/05/04 07:03:22;;;;;;;5.55;3.12;;;11.80;50.80;;;;;;1756329;82;21160;-82
2021/05/04 07:05:49;;;;;;;6.95;3.00;;;11.90;49.60;;;;;;1756620;82;21164;-81
2021/05/04 07:08:17;;;;;;;4.75;2.70;;;12.10;49.40;;;;;;1756478;82;21595;-81
2021/05/04 07:10:44;;;;;;;9.15;3.40;;;12.10;49.20;;;;;;1756618;82;21184;-81
2021/05/04 07:13:19;;;;;;;6.00;3.33;;;12.30;49.40;;;;;;1756529;82;21169;-80
2021/05/04 07:15:47;;;;;;;6.20;3.15;;;12.30;49.20;;;;;;1757225;82;21493;-80
2021/05/04 07:18:15;;;;;;;7.03;3.25;;;12.40;48.20;;;;;;1756280;80;21196;-81
2021/05/04 07:20:43;;;;;;;8.70;3.08;;;12.60;49.40;;;;;;1756528;81;21577;-80
2021/05/04 07:23:12;;;;;;;7.42;2.90;;;12.70;49.00;;;;;;1756528;82;21145;-81
2021/05/04 07:25:41;;;;;;;7.20;3.20;;;12.80;49.90;;;;;;1756800;81;21184;-81
2021/05/04 07:28:09;;;;;;;5.67;3.22;;;12.90;51.20;;;;;;1756597;81;21151;-80
2021/05/04 07:30:42;;;;;;;6.92;3.83;;;13.10;48.60;;;;;;1756525;81;21153;-80
2021/05/04 07:33:09;;;;;;;8.00;3.30;;;13.30;48.40;;;;;;1756514;82;21225;-81
2021/05/04 07:35:38;;;;;;;7.75;3.08;;;13.40;47.10;;;;;;1756791;82;21144;-80
2021/05/04 07:38:06;;;;;;;7.55;3.33;;;13.50;47.30;;;;;;1756828;82;21161;-81
2021/05/04 07:40:33;;;;;;;5.47;3.00;;;13.60;47.40;;;;;;1756819;81;21176;-80
2021/05/04 07:43:01;;;;;;;7.33;3.33;;;13.70;45.90;;;;;;1756543;81;21152;-80
2021/05/04 07:45:29;;;;;;;4.55;2.80;;;13.80;48.50;;;;;;1756535;81;21166;-80
2021/05/04 07:47:59;;;;;;;5.40;3.10;;;13.90;45.20;;;;;;1756594;82;21590;-80
2021/05/04 07:50:28;;;;;;;5.62;3.10;;;14.00;46.90;;;;;;1756714;81;21125;-81
2021/05/04 07:52:56;;;;;;;8.18;3.12;;;14.10;46.40;;;;;;1756580;82;21189;-81
2021/05/04 07:55:25;;;;;;;5.28;2.80;;;14.30;46.60;;;;;;1756546;81;21168;-81
2021/05/04 07:57:52;;;;;;;5.35;3.33;;;14.60;44.10;;;;;;1756693;82;21156;-81
2021/05/04 08:00:21;;;;;;;7.92;3.52;;;15.10;45.70;;;;;;1756621;82;21177;-81
2021/05/04 08:02:48;;;;;;;8.23;3.30;;;15.50;42.40;;;;;;1756528;81;21156;-81
2021/05/04 08:05:17;;;;;;;6.05;3.10;;;16.00;41.40;;;;;;1756318;82;21149;-81
2021/05/04 08:07:45;;;;;;;4.92;2.87;;;16.20;40.30;;;;;;1756465;82;21177;-82
2021/05/04 08:10:13;;;;;;;5.20;3.05;;;16.60;39.50;;;;;;1756497;82;21156;-81
2021/05/04 08:12:40;;;;;;;6.42;3.20;;;17.10;40.50;;;;;;1756552;82;21172;-82
2021/05/04 08:15:17;;;;;;;4.20;2.77;;;17.50;39.90;;;;;;1756688;81;21165;-81
2021/05/04 08:17:40;;;;;;;6.05;3.20;;;18.10;37.60;;;;;;1755749;81;21164;-81
2021/05/04 08:20:10;;;;;;;3.95;2.50;;;18.30;34.70;;;;;;1756799;81;21128;-80
2021/05/04 08:22:38;;;;;;;5.40;3.25;;;19.10;36.40;;;;;;1756778;82;21176;-81
2021/05/04 08:25:07;;;;;;;4.58;2.80;;;19.50;34.50;;;;;;1756782;81;21172;-81
2021/05/04 08:27:35;;;;;;;6.12;2.80;;;20.10;34.50;;;;;;1756510;81;21148;-80
2021/05/04 08:30:05;;;;;;;6.20;3.37;;;20.30;31.30;;;;;;1756764;81;21169;-81
2021/05/04 08:32:34;;;;;;;10.00;3.00;;;20.70;32.10;;;;;;1756471;82;21156;-81
2021/05/04 08:35:03;;;;;;;4.80;2.90;;;20.60;29.60;;;;;;1756484;82;21160;-80
2021/05/04 08:37:30;;;;;;;4.53;3.10;;;20.90;31.50;;;;;;1756611;80;21168;-81
2021/05/04 08:39:58;;;;;;;5.45;2.80;;;20.30;29.30;;;;;;1756660;82;21163;-81
2021/05/04 08:42:26;;;;;;;4.10;2.62;;;20.20;30.60;;;;;;1756710;81;21532;-80
2021/05/04 08:44:56;;;;;;;3.70;2.65;;;20.10;33.90;;;;;;1756477;81;21618;-80
2021/05/04 08:47:23;;;;;;;4.87;2.70;;;20.30;33.60;;;;;;1756663;80;21140;-80
2021/05/04 08:49:52;;;;;;;3.98;2.58;;;20.40;31.10;;;;;;1756648;81;21160;-80
2021/05/04 08:52:20;;;;;;;4.33;2.40;;;20.50;30.50;;;;;;1756563;82;21181;-80
2021/05/04 08:54:47;;;;;;;4.80;2.58;;;20.50;31.60;;;;;;1756857;81;21169;-81
2021/05/04 08:57:16;;;;;;;3.35;2.35;;;20.50;32.60;;;;;;1756482;81;21125;-80
2021/05/04 08:59:44;;;;;;;5.35;2.33;;;20.30;30.80;;;;;;1756673;82;21623;-80
2021/05/04 09:02:12;;;;;;;3.12;2.27;;;20.30;30.00;;;;;;1756753;81;21165;-80
2021/05/04 09:04:56;;;;;;;4.25;2.08;;;20.30;31.80;;;;;;1756639;81;21141;-80
2021/05/04 09:07:26;;;;;;;4.35;2.05;;;20.30;30.80;;;;;;1755526;81;21150;-80
2021/05/04 09:13:00;;;;;;;6.30;2.40;;;20.30;30.80;;;;;;1756744;82;21173;-81
2021/05/04 09:15:55;;;;;;;3.22;2.00;;;20.20;30.40;;;;;;1756289;81;21177;-81
2021/05/04 09:19:04;;;;;;;;;;;20.20;31.70;;;;;;1738164;81;21171;-80
2021/05/04 09:21:12;;;;;;;3.72;2.17;;;19.90;30.40;;;;;;1724566;83;20423;-81
2021/05/04 09:23:43;;;;;;;3.80;2.27;;;19.70;32.30;;;;;;1725274;83;21199;-81
2021/05/04 09:26:22;;;;;;;4.08;2.35;;;19.40;33.40;;;;;;1728565;83;21708;-81
2021/05/04 09:28:52;;;;;;;4.58;2.27;;;19.30;33.30;;;;;;1728291;83;21120;-80
2021/05/04 09:31:30;;;;;;;4.75;2.20;;;19.10;31.80;;;;;;1728495;83;21286;-80
2021/05/04 09:34:09;;;;;;;3.87;2.00;;;18.90;33.90;;;;;;1728382;83;21139;-80
2021/05/04 09:36:41;;;;;;;3.58;2.05;;;18.70;33.80;;;;;;1728357;83;21136;-80
2021/05/04 09:39:28;;;;;;;3.95;2.10;;;18.60;34.70;;;;;;1728312;83;21128;-81
2021/05/04 09:41:59;;;;;;;4.42;2.17;;;18.40;34.70;;;;;;1728499;83;21262;-81
2021/05/04 09:44:48;;;;;;;4.35;2.50;;;18.10;32.80;;;;;;1728441;83;21689;-81
2021/05/04 09:47:24;;;;;;;4.40;2.77;;;18.00;35.70;;;;;;1728377;83;21209;-81
2021/05/04 09:49:54;;;;;;;4.45;2.33;;;17.80;35.20;;;;;;1728068;83;21582;-81
2021/05/04 09:52:42;;;;;;;3.33;2.10;;;17.70;35.10;;;;;;1728333;83;21622;-80
2021/05/04 09:55:11;;;;;;;8.68;2.20;;;17.70;35.10;;;;;;1728146;83;21591;-80
2021/05/04 09:57:50;;;;;;;4.72;2.27;;;17.80;33.80;;;;;;1728113;83;21160;-80
2021/05/04 10:00:28;;;;;;;3.08;1.92;;;17.80;34.60;;;;;;1728070;83;21149;-80
2021/05/04 10:03:00;;;;;;;3.12;1.90;;;17.80;34.80;;;;;;1727902;83;21278;-81
2021/05/04 10:05:28;;;;;;;4.08;2.20;;;17.80;35.20;;;;;;1727292;82;21712;-72
2021/05/04 10:07:56;;;;;;;3.95;2.30;;;17.80;35.10;;;;;;1727092;83;21485;-70
2021/05/04 10:10:25;;;;;;;4.45;2.10;;;17.80;35.10;;;;;;1727228;83;21160;-70
2021/05/04 10:12:53;;;;;;;4.37;1.92;;;17.80;35.70;;;;;;1728147;83;21164;-70
2021/05/04 10:15:22;;;;;;;5.00;2.17;;;17.80;36.20;;;;;;1727114;82;21152;-69
2021/05/04 10:17:51;;;;;;;4.08;2.10;;;17.90;35.80;;;;;;1743939;81;21135;-69
2021/05/04 10:20:19;;;;;;;3.87;2.02;;;17.90;35.60;;;;;;1752034;81;21148;-68
2021/05/04 10:22:49;;;;;;;5.05;2.87;;;18.00;34.10;;;;;;1743114;82;21548;-68
2021/05/04 10:25:20;;;;;;;6.40;2.80;;;17.90;35.40;;;;;;1739615;82;21103;-68
2021/05/04 10:27:54;;;;;;;4.25;2.10;;;17.90;34.80;;;;;;1743232;82;21135;-70
2021/05/04 10:30:24;;;;;;;3.02;1.90;;;17.70;34.60;;;;;;1743232;82;21157;-69
2021/05/04 10:33:00;;;;;;;5.58;2.00;;;17.70;34.30;;;;;;1743546;82;21174;-68
2021/05/04 10:35:34;;;;;;;6.20;2.87;;;17.70;35.90;;;;;;1743248;82;21128;-68
2021/05/04 10:38:13;;;;;;;3.60;1.85;;;17.70;35.20;;;;;;1740036;82;21580;-67
2021/05/04 10:40:48;;;;;;;8.40;2.10;;;17.70;35.80;;;;;;1706463;84;21147;-68
2021/05/04 10:43:29;;;;;;;3.33;1.60;;;17.70;35.40;;;;;;1680601;85;21171;-68
2021/05/04 10:45:59;;;;;;;3.47;1.75;;;17.60;34.80;;;;;;1680604;85;21693;-69
2021/05/04 10:48:42;;;;;;;4.28;2.15;;;17.60;35.20;;;;;;1680604;85;21346;-69
2021/05/04 10:51:19;;;;;;;2.90;1.65;;;17.60;34.70;;;;;;1697909;84;21151;-69
2021/05/04 10:54:01;;;;;;;2.85;1.85;;;17.60;35.60;;;;;;1707888;84;21135;-69
2021/05/04 10:56:36;;;;;;;3.10;1.82;;;17.60;35.10;;;;;;1699813;84;21165;-67
2021/05/04 10:59:11;;;;;;;4.33;1.95;;;17.60;35.30;;;;;;1707080;84;21581;-68
2021/05/04 11:01:39;;;;;;;4.25;1.67;;;17.50;34.50;;;;;;1680537;85;21136;-68
2021/05/04 11:04:07;;;;;;;7.42;2.00;;;17.40;35.20;;;;;;1680498;85;21595;-69
2021/05/04 11:06:42;;;;;;;6.62;1.90;;;17.40;36.20;;;;;;1680457;84;21615;-69
2021/05/04 11:09:13;;;;;;;3.12;1.60;;;17.40;35.40;;;;;;1680779;85;21168;-74
2021/05/04 11:11:43;;;;;;;2.85;1.75;;;17.40;34.80;;;;;;1680480;85;21188;-71
2021/05/04 11:14:19;;;;;;;6.05;2.00;;;17.30;35.30;;;;;;1680458;85;21151;-68
2021/05/04 11:16:56;;;;;;;2.58;1.62;;;17.30;35.20;;;;;;1680868;85;21306;-71
2021/05/04 11:19:30;;;;;;;4.65;2.17;;;17.30;34.90;;;;;;1704975;84;21171;-70
2021/05/04 11:22:08;;;;;;;2.55;1.75;;;17.30;35.60;;;;;;1706278;84;21170;-70
2021/05/04 11:24:41;;;;;;;3.37;1.90;;;17.30;35.50;;;;;;1704591;84;21140;-70
2021/05/04 11:27:13;;;;;;;;;;;17.30;36.00;;;;;;1704158;84;21183;-68
2021/05/04 11:29:45;;;;;;;3.37;1.90;;;17.30;36.60;;;;;;1678773;85;21122;-69
2021/05/04 11:32:28;;;;;;;2.60;1.60;;;17.30;35.00;;;;;;1680893;85;21699;-69
2021/05/04 11:35:04;;;;;;;2.80;1.77;;;17.30;35.80;;;;;;1698089;84;21131;-72
2021/05/04 11:37:44;;;;;;;2.83;1.70;;;17.40;36.60;;;;;;1681327;85;21171;-69
2021/05/04 11:40:19;;;;;;;3.22;1.72;;;17.30;35.70;;;;;;1702632;84;21149;-76
2021/05/04 11:42:57;;;;;;;3.90;1.83;;;17.30;36.70;;;;;;1680663;85;21140;-68
2021/05/04 11:45:32;;;;;;;2.40;1.60;;;17.30;36.00;;;;;;1705434;84;21234;-67
2021/05/04 11:48:04;;;;;;;3.02;1.87;;;17.40;36.40;;;;;;1703572;84;21566;-68
2021/05/04 11:50:35;;;;;;;4.10;1.92;;;17.40;34.80;;;;;;1681346;85;21143;-68
2021/05/04 11:53:07;;;;;;;3.22;1.82;;;17.40;36.90;;;;;;1680605;85;21614;-68
2021/05/04 11:55:44;;;;;;;5.97;1.70;;;17.40;36.20;;;;;;1701658;84;21137;-67
2021/05/04 11:58:25;;;;;;;2.90;1.72;;;17.50;37.10;;;;;;1680648;85;21168;-69
2021/05/04 12:00:59;;;;;;;4.00;1.75;;;17.50;36.70;;;;;;1680702;85;21160;-68
2021/05/04 12:03:27;;;;;;;5.40;2.02;;;17.50;36.00;;;;;;1680778;85;21574;-68
2021/05/04 12:06:01;;;;;;;3.25;1.90;;;17.60;36.40;;;;;;1680546;85;21559;-68
2021/05/04 12:08:29;;;;;;;3.42;2.00;;;17.60;35.20;;;;;;1681043;85;21302;-68
2021/05/04 12:10:57;;;;;;;3.42;1.95;;;17.60;35.30;;;;;;1680524;83;21146;-68
2021/05/04 12:13:27;;;;;;;5.47;1.87;;;17.50;35.20;;;;;;1677769;85;21326;-68
2021/05/04 12:16:00;;;;;;;3.87;2.02;;;17.60;35.20;;;;;;1680800;85;21180;-69
2021/05/04 12:18:32;;;;;;;3.47;2.35;;;17.60;35.00;;;;;;1680826;85;21129;-68
2021/05/04 12:21:06;;;;;;;3.67;2.10;;;17.60;35.40;;;;;;1695986;84;21200;-69
2021/05/04 12:23:43;;;;;;;3.35;2.02;;;17.60;36.10;;;;;;1698506;84;21149;-69
2021/05/04 12:26:17;;;;;;;8.88;5.10;;;17.50;35.90;;;;;;1697670;84;21160;-69
2021/05/04 12:28:55;;;;;;;7.65;3.87;;;17.60;35.90;;;;;;1697221;84;21623;-68
2021/05/04 12:31:38;;;;;;;3.52;2.12;;;17.50;36.00;;;;;;1698447;84;21118;-69
2021/05/04 12:34:07;;;;;;;3.02;1.80;;;17.60;36.50;;;;;;1702641;84;21176;-68
2021/05/04 12:39:24;;;;;;;2.67;1.77;;;17.60;35.80;;;;;;1715090;83;21108;-68
2021/05/04 12:41:53;;;;;;;3.52;2.02;;;17.70;36.30;;;;;;1733990;82;21139;-68
2021/05/04 12:44:28;;;;;;;3.37;1.90;;;17.70;36.50;;;;;;1698874;83;21137;-68
2021/05/04 12:47:02;;;;;;;3.22;2.10;;;17.70;35.60;;;;;;1715250;83;21116;-86
2021/05/04 12:49:42;;;;;;;3.72;1.90;;;17.70;34.00;;;;;;1732118;83;21159;-85
2021/05/04 12:52:16;;;;;;;3.35;1.92;;;17.60;34.50;;;;;;1702678;84;21189;-85
2021/05/04 12:54:48;;;;;;;3.45;2.20;;;17.60;35.00;;;;;;1702618;83;21276;-86
2021/05/04 12:57:27;;;;;;;3.85;2.33;;;17.50;34.50;;;;;;1701194;83;21168;-79
2021/05/04 12:59:56;;;;;;;4.00;2.20;;;17.50;36.50;;;;;;1699807;84;21152;-83
2021/05/04 13:02:28;;;;;;;5.20;2.95;;;17.50;36.40;;;;;;1699121;84;21161;-82
2021/05/04 13:05:03;;;;;;;4.60;2.33;;;17.40;35.50;;;;;;1697057;84;21145;-83
2021/05/04 13:07:57;;;;;;;5.00;2.92;;;17.50;38.10;;;;;;1699643;84;21556;-82
2021/05/04 13:10:34;;;;;;;4.25;2.62;;;17.40;36.20;;;;;;1716329;83;21152;-80
2021/05/04 13:30:33;;;;;;;4.12;2.30;;;17.50;38.80;;;;;;1750784;82;21301;-85